Time;durP1;ratioP1;P1;durP2;ratioP2;P2;SDS_P1;SDS_P2;PMS_P1;PMS_P2;Temp;Humidity;BMP_temperature;BMP_pressure;BME280_temperature;BME280_humidity;BME280_pressure;Samples;Min_cycle;Max_cycle;Signal;HPM_P1;HPM_P2
2022/09/10 00:00:03;;;;;;;;;;;21.90;69.40;;;;;;5033643;28;1257;-66
2022/09/10 00:02:31;;;;;;;;;;;21.90;69.40;;;;;;5033616;28;1785;-68
2022/09/10 00:04:59;;;;;;;;;;;21.90;69.40;;;;;;5034110;28;878;-68
2022/09/10 00:07:24;;;;;;;;;;;21.90;69.40;;;;;;5046560;28;1204;-66
2022/09/10 00:09:50;;;;;;;;;;;21.90;69.40;;;;;;5015846;28;1186;-67
2022/09/10 00:12:15;;;;;;;;;;;21.90;69.40;;;;;;5033457;28;1898;-67
2022/09/10 00:14:41;;;;;;;;;;;21.90;69.40;;;;;;5033807;28;1173;-66
2022/09/10 00:17:06;;;;;;;;;;;21.90;69.40;;;;;;5033687;28;1304;-68
2022/09/10 00:19:31;;;;;;;;;;;21.90;70.10;;;;;;5033123;28;1248;-67
2022/09/10 00:21:57;;;;;;;;;;;21.90;69.40;;;;;;5015640;28;1340;-67
2022/09/10 00:24:23;;;;;;;;;;;21.90;69.40;;;;;;5015780;28;1302;-67
2022/09/10 00:26:49;;;;;;;;;;;21.90;69.40;;;;;;5034907;28;1165;-67
2022/09/10 00:29:17;;;;;;;;;;;21.90;69.40;;;;;;5033026;28;1288;-67
2022/09/10 00:31:43;;;;;;;;;;;21.90;69.40;;;;;;5039918;28;1886;-66
2022/09/10 00:34:10;;;;;;;;;;;21.90;69.40;;;;;;5033633;28;886;-66
2022/09/10 00:36:37;;;;;;;;;;;21.90;69.40;;;;;;5016216;28;851;-66
2022/09/10 00:39:04;;;;;;;;;;;21.90;69.40;;;;;;5033540;28;875;-66
2022/09/10 00:41:29;;;;;;;;;;;21.90;69.40;;;;;;5033502;28;1209;-66
2022/09/10 00:44:01;;;;;;;;;;;21.90;69.40;;;;;;5031763;28;2230;-66
2022/09/10 00:46:32;;;;;;;;;;;21.90;69.40;;;;;;5032948;28;1127;-66
2022/09/10 00:48:58;;;;;;;;;;;21.90;69.40;;;;;;4999089;28;1221;-67
2022/09/10 00:51:25;;;;;;;;;;;21.90;69.50;;;;;;5015833;28;1902;-66
2022/09/10 00:53:51;;;;;;;;;;;21.90;69.40;;;;;;5015766;28;1414;-67
2022/09/10 00:56:16;;;;;;;;;;;21.90;69.40;;;;;;5014870;28;842;-67
2022/09/10 00:58:42;;;;;;;;;;;21.90;69.40;;;;;;5033004;28;942;-67
2022/09/10 01:01:07;;;;;;;;;;;21.90;69.50;;;;;;5033217;28;1075;-67
2022/09/10 01:03:33;;;;;;;;;;;21.90;69.40;;;;;;5032780;28;1239;-66
2022/09/10 01:05:58;;;;;;;;;;;21.90;69.40;;;;;;5032920;28;1143;-67
2022/09/10 01:08:26;;;;;;;;;;;21.90;69.40;;;;;;5033111;28;1057;-66
2022/09/10 01:10:57;;;;;;;;;;;21.90;69.40;;;;;;5033553;28;1898;-66
2022/09/10 01:13:32;;;;;;;;;;;21.90;69.50;;;;;;5033099;28;1245;-66
2022/09/10 01:16:03;;;;;;;;;;;21.90;69.50;;;;;;4995498;28;1808;-66
2022/09/10 01:18:32;;;;;;;;;;;21.90;69.40;;;;;;5012916;28;978;-67
2022/09/10 01:20:59;;;;;;;;;;;21.90;69.50;;;;;;4995621;28;922;-65
2022/09/10 01:23:31;;;;;;;;;;;21.90;69.50;;;;;;4995632;28;1261;-66
2022/09/10 01:26:15;;;;;;;;;;;21.90;69.50;;;;;;5013264;28;1037;-67
2022/09/10 01:28:52;;;;;;;;;;;21.80;69.40;;;;;;5049883;28;1215;-67
2022/09/10 01:31:22;;;;;;;;;;;21.90;69.50;;;;;;5049257;28;1906;-66
2022/09/10 01:33:50;;;;;;;;;;;21.90;69.60;;;;;;4998883;28;1141;-66
2022/09/10 01:36:17;;;;;;;;;;;21.80;69.40;;;;;;5032681;28;1196;-66
2022/09/10 01:38:43;;;;;;;;;;;21.90;69.50;;;;;;5015014;28;1218;-66
2022/09/10 01:41:09;;;;;;;;;;;21.90;69.50;;;;;;5015173;28;853;-67
2022/09/10 01:43:34;;;;;;;;;;;21.80;69.40;;;;;;5015105;28;1326;-67
2022/09/10 01:46:18;;;;;;;;;;;21.90;69.50;;;;;;5032677;28;875;-67
2022/09/10 01:49:02;;;;;;;;;;;21.80;69.50;;;;;;5032624;28;1053;-68
2022/09/10 01:51:46;;;;;;;;;;;21.90;69.50;;;;;;5032461;28;1902;-67
2022/09/10 01:54:27;;;;;;;;;;;21.90;69.50;;;;;;5015051;28;898;-67
2022/09/10 01:56:57;;;;;;;;;;;21.90;69.50;;;;;;5032726;28;835;-67
2022/09/10 01:59:25;;;;;;;;;;;21.90;69.50;;;;;;5032458;28;846;-67
2022/09/10 02:01:52;;;;;;;;;;;21.90;69.50;;;;;;5032339;28;1230;-67
2022/09/10 02:04:18;;;;;;;;;;;21.90;69.50;;;;;;5015027;28;899;-67
2022/09/10 02:06:44;;;;;;;;;;;21.90;69.50;;;;;;5014970;28;939;-67
2022/09/10 02:09:09;;;;;;;;;;;21.90;69.50;;;;;;5017419;28;1411;-67
2022/09/10 02:11:46;;;;;;;;;;;21.90;69.50;;;;;;5018626;28;1958;-66
2022/09/10 02:14:13;;;;;;;;;;;21.90;69.50;;;;;;5018691;28;843;-66
2022/09/10 02:16:40;;;;;;;;;;;21.90;69.50;;;;;;5036398;28;1296;-66
2022/09/10 02:19:06;;;;;;;;;;;21.90;69.50;;;;;;5018401;28;828;-66
2022/09/10 02:21:32;;;;;;;;;;;21.90;69.50;;;;;;5018855;28;1193;-66
2022/09/10 02:24:04;;;;;;;;;;;21.90;69.50;;;;;;5018788;28;903;-66
2022/09/10 02:26:32;;;;;;;;;;;21.90;69.50;;;;;;5019153;28;1124;-66
2022/09/10 02:28:58;;;;;;;;;;;21.90;69.50;;;;;;5055841;28;877;-66
2022/09/10 02:31:24;;;;;;;;;;;21.90;69.50;;;;;;5051486;28;1894;-66
2022/09/10 02:33:50;;;;;;;;;;;21.90;69.50;;;;;;5036081;28;875;-66
2022/09/10 02:36:15;;;;;;;;;;;21.90;69.50;;;;;;5018374;28;1136;-67
2022/09/10 02:38:41;;;;;;;;;;;21.80;69.40;;;;;;5002005;28;1133;-67
2022/09/10 02:41:08;;;;;;;;;;;21.90;69.50;;;;;;5035759;28;1073;-67
2022/09/10 02:43:37;;;;;;;;;;;21.90;69.50;;;;;;5035782;28;1288;-67
2022/09/10 02:46:03;;;;;;;;;;;21.90;69.60;;;;;;5035779;28;928;-67
2022/09/10 02:48:29;;;;;;;;;;;21.90;69.50;;;;;;5018067;28;863;-67
2022/09/10 02:50:55;;;;;;;;;;;21.90;69.60;;;;;;5035719;28;1971;-67
2022/09/10 02:53:20;;;;;;;;;;;21.90;69.60;;;;;;5035625;28;1172;-66
2022/09/10 02:55:46;;;;;;;;;;;21.90;69.60;;;;;;5035342;28;1046;-67
2022/09/10 02:58:12;;;;;;;;;;;21.90;69.50;;;;;;5035508;28;808;-67
2022/09/10 03:00:38;;;;;;;;;;;21.90;69.60;;;;;;5017755;28;871;-66
2022/09/10 03:03:04;;;;;;;;;;;21.90;69.60;;;;;;5035382;28;1193;-66
2022/09/10 03:05:29;;;;;;;;;;;21.90;69.60;;;;;;5035357;28;780;-67
2022/09/10 03:07:55;;;;;;;;;;;21.90;69.60;;;;;;5017851;28;791;-67
2022/09/10 03:10:22;;;;;;;;;;;21.90;69.60;;;;;;5017592;28;1894;-67
2022/09/10 03:12:48;;;;;;;;;;;21.90;69.60;;;;;;5017657;28;1215;-67
2022/09/10 03:15:13;;;;;;;;;;;21.90;69.60;;;;;;5040632;28;1124;-67
2022/09/10 03:17:39;;;;;;;;;;;21.90;69.60;;;;;;5038252;28;1105;-67
2022/09/10 03:20:05;;;;;;;;;;;21.90;69.60;;;;;;5033648;28;1076;-67
2022/09/10 03:22:31;;;;;;;;;;;21.90;69.60;;;;;;5035005;28;1299;-68
2022/09/10 03:24:57;;;;;;;;;;;21.90;69.60;;;;;;5034835;28;812;-67
2022/09/10 03:27:24;;;;;;;;;;;21.90;69.60;;;;;;5035258;28;1100;-67
2022/09/10 03:29:49;;;;;;;;;;;21.90;69.60;;;;;;5017232;28;830;-67
2022/09/10 03:32:15;;;;;;;;;;;21.90;69.60;;;;;;5034903;28;1961;-67
2022/09/10 03:34:40;;;;;;;;;;;21.90;69.60;;;;;;5035001;28;1072;-66
2022/09/10 03:37:05;;;;;;;;;;;21.80;69.60;;;;;;5034811;28;727;-67
2022/09/10 03:39:31;;;;;;;;;;;21.90;69.60;;;;;;5034422;28;788;-67
2022/09/10 03:41:57;;;;;;;;;;;21.90;69.60;;;;;;5034523;28;1221;-66
2022/09/10 03:44:22;;;;;;;;;;;21.80;69.60;;;;;;5034758;28;867;-67
2022/09/10 03:46:50;;;;;;;;;;;21.90;69.60;;;;;;5034852;28;970;-67
2022/09/10 03:49:15;;;;;;;;;;;21.90;69.60;;;;;;5034393;28;928;-67
2022/09/10 03:51:41;;;;;;;;;;;21.90;69.60;;;;;;5034335;28;1973;-67
2022/09/10 03:54:06;;;;;;;;;;;21.90;69.60;;;;;;5034471;28;812;-67
2022/09/10 03:56:32;;;;;;;;;;;21.90;69.60;;;;;;5034526;28;1022;-67
2022/09/10 03:58:58;;;;;;;;;;;21.90;69.60;;;;;;5034266;28;844;-67
2022/09/10 04:01:23;;;;;;;;;;;21.90;69.60;;;;;;5034361;28;1277;-67
2022/09/10 04:03:52;;;;;;;;;;;21.80;69.50;;;;;;5034350;28;882;-67
2022/09/10 04:06:17;;;;;;;;;;;21.90;69.60;;;;;;5016564;28;935;-66
2022/09/10 04:08:43;;;;;;;;;;;21.90;69.60;;;;;;5033845;28;915;-66
2022/09/10 04:11:09;;;;;;;;;;;21.90;69.60;;;;;;5034107;28;1906;-67
2022/09/10 04:13:35;;;;;;;;;;;21.80;69.60;;;;;;5034012;28;1537;-66
2022/09/10 04:16:00;;;;;;;;;;;21.90;69.60;;;;;;5034255;28;1223;-66
2022/09/10 04:18:26;;;;;;;;;;;21.80;69.50;;;;;;5016138;28;916;-67
2022/09/10 04:20:52;;;;;;;;;;;21.90;69.60;;;;;;5033985;28;799;-67
2022/09/10 04:23:17;;;;;;;;;;;21.80;69.50;;;;;;5033694;28;1305;-67
2022/09/10 04:25:43;;;;;;;;;;;21.90;69.60;;;;;;5033947;28;784;-67
2022/09/10 04:28:10;;;;;;;;;;;21.90;69.60;;;;;;5047862;28;1186;-68
2022/09/10 04:30:36;;;;;;;;;;;21.90;69.60;;;;;;5035938;28;1969;-67
2022/09/10 04:33:01;;;;;;;;;;;21.90;69.60;;;;;;5035724;28;1250;-67
2022/09/10 04:35:27;;;;;;;;;;;21.90;69.70;;;;;;5033769;28;780;-67
2022/09/10 04:37:52;;;;;;;;;;;21.90;69.60;;;;;;5033681;28;882;-67
2022/09/10 04:40:17;;;;;;;;;;;21.90;69.60;;;;;;5033362;28;1093;-66
2022/09/10 04:42:43;;;;;;;;;;;21.90;69.60;;;;;;5032710;28;2240;-66
2022/09/10 04:45:08;;;;;;;;;;;21.80;69.60;;;;;;5033523;28;1206;-66
2022/09/10 04:47:34;;;;;;;;;;;21.80;69.60;;;;;;5033645;28;962;-68
2022/09/10 04:49:59;;;;;;;;;;;21.90;69.60;;;;;;5017405;28;1760;-69
2022/09/10 04:52:26;;;;;;;;;;;21.90;69.70;;;;;;5006273;28;2054;-69
2022/09/10 04:54:51;;;;;;;;;;;21.90;69.70;;;;;;5027328;28;9949;-69
2022/09/10 04:57:17;;;;;;;;;;;21.80;69.60;;;;;;5029168;28;899;-68
2022/09/10 04:59:42;;;;;;;;;;;21.80;69.60;;;;;;4994659;28;1207;-68
2022/09/10 05:02:08;;;;;;;;;;;21.90;69.60;;;;;;5012689;28;1381;-67
2022/09/10 05:04:33;;;;;;;;;;;21.90;69.70;;;;;;5013492;28;1241;-69
2022/09/10 05:07:00;;;;;;;;;;;21.90;69.70;;;;;;5013241;28;798;-68
2022/09/10 05:09:29;;;;;;;;;;;21.80;68.00;;;;;;5013197;28;867;-69
2022/09/10 05:11:55;;;;;;;;;;;21.90;67.00;;;;;;4996225;28;1973;-69
2022/09/10 05:14:22;;;;;;;;;;;21.80;65.90;;;;;;4995873;28;1081;-69
2022/09/10 05:16:47;;;;;;;;;;;21.80;65.70;;;;;;5013268;28;1165;-69
2022/09/10 05:19:16;;;;;;;;;;;21.80;65.90;;;;;;5013106;28;878;-69
2022/09/10 05:21:45;;;;;;;;;;;21.80;64.80;;;;;;5012992;28;1198;-69
2022/09/10 05:24:10;;;;;;;;;;;21.80;64.90;;;;;;5028606;28;997;-69
2022/09/10 05:26:36;;;;;;;;;;;21.80;65.70;;;;;;5013243;28;1187;-69
2022/09/10 05:29:01;;;;;;;;;;;21.80;65.70;;;;;;5007172;28;1685;-68
2022/09/10 05:31:27;;;;;;;;;;;21.80;65.70;;;;;;5011762;28;1898;-69
2022/09/10 05:33:53;;;;;;;;;;;21.70;65.60;;;;;;5012301;28;1022;-67
2022/09/10 05:36:19;;;;;;;;;;;21.80;65.40;;;;;;5011983;28;903;-68
2022/09/10 05:38:45;;;;;;;;;;;21.70;65.30;;;;;;4994257;28;1049;-68
2022/09/10 05:41:10;;;;;;;;;;;21.70;65.20;;;;;;5012002;28;792;-69
2022/09/10 05:43:35;;;;;;;;;;;21.70;65.00;;;;;;5013822;28;1188;-69
2022/09/10 05:46:01;;;;;;;;;;;21.70;65.20;;;;;;5016312;28;927;-67
2022/09/10 05:48:27;;;;;;;;;;;21.70;64.60;;;;;;5015963;28;844;-67
2022/09/10 05:50:52;;;;;;;;;;;21.70;65.10;;;;;;5015652;28;1898;-68
2022/09/10 05:53:18;;;;;;;;;;;21.70;65.00;;;;;;5015767;28;1405;-70
2022/09/10 05:55:44;;;;;;;;;;;21.70;64.50;;;;;;5015993;28;637;-70
2022/09/10 05:58:09;;;;;;;;;;;21.70;64.50;;;;;;5015916;28;828;-70
2022/09/10 06:00:35;;;;;;;;;;;21.70;64.60;;;;;;5015626;28;876;-68
2022/09/10 06:03:01;;;;;;;;;;;21.70;64.10;;;;;;4998199;28;1220;-68
2022/09/10 06:05:27;;;;;;;;;;;21.70;64.30;;;;;;5015645;28;851;-69
2022/09/10 06:07:52;;;;;;;;;;;21.70;64.40;;;;;;5015825;28;805;-69
2022/09/10 06:10:18;;;;;;;;;;;21.70;64.00;;;;;;5015236;28;1891;-69
2022/09/10 06:12:48;;;;;;;;;;;21.70;63.90;;;;;;5015664;28;1153;-70
2022/09/10 06:15:14;;;;;;;;;;;21.70;64.20;;;;;;4994785;28;1132;-69
2022/09/10 06:17:39;;;;;;;;;;;21.60;64.30;;;;;;4995000;28;930;-69
2022/09/10 06:20:05;;;;;;;;;;;21.60;63.80;;;;;;4995447;28;831;-70
2022/09/10 06:22:31;;;;;;;;;;;21.60;63.40;;;;;;4994719;28;1205;-68
2022/09/10 06:24:56;;;;;;;;;;;21.60;63.50;;;;;;4995894;28;887;-69
2022/09/10 06:27:22;;;;;;;;;;;21.60;63.60;;;;;;5003642;28;1133;-68
2022/09/10 06:29:47;;;;;;;;;;;21.60;63.50;;;;;;5015150;28;795;-68
2022/09/10 06:32:13;;;;;;;;;;;21.60;63.60;;;;;;5014926;28;1965;-69
2022/09/10 06:34:38;;;;;;;;;;;21.60;63.50;;;;;;5015021;28;827;-69
2022/09/10 06:37:04;;;;;;;;;;;21.60;63.40;;;;;;5015022;28;982;-69
2022/09/10 06:39:30;;;;;;;;;;;21.60;63.60;;;;;;5013671;28;858;-69
2022/09/10 06:41:55;;;;;;;;;;;21.60;63.50;;;;;;5013948;28;1200;-69
2022/09/10 06:44:21;;;;;;;;;;;21.60;63.20;;;;;;5015128;28;816;-69
2022/09/10 06:46:47;;;;;;;;;;;21.60;63.70;;;;;;5015020;28;800;-70
2022/09/10 06:49:13;;;;;;;;;;;21.60;63.50;;;;;;5014609;28;832;-70
2022/09/10 06:51:38;;;;;;;;;;;21.60;63.80;;;;;;5015189;28;1910;-69
2022/09/10 06:54:04;;;;;;;;;;;21.60;63.60;;;;;;5015565;28;855;-69
2022/09/10 06:56:29;;;;;;;;;;;21.60;63.80;;;;;;5011755;28;2277;-69
2022/09/10 06:58:56;;;;;;;;;;;21.60;63.90;;;;;;5022681;28;1380;-69
2022/09/10 07:01:24;;;;;;;;;;;21.60;63.40;;;;;;5005994;28;2033;-69
2022/09/10 07:03:56;;;;;;;;;;;21.60;63.70;;;;;;5024166;28;1229;-69
2022/09/10 07:06:22;;;;;;;;;;;21.60;63.90;;;;;;4997999;28;1172;-69
2022/09/10 07:08:47;;;;;;;;;;;21.60;63.80;;;;;;5009069;28;1148;-69
2022/09/10 07:11:13;;;;;;;;;;;21.60;63.80;;;;;;5034118;28;1906;-69
2022/09/10 07:13:39;;;;;;;;;;;21.60;63.80;;;;;;5005222;28;1968;-69
2022/09/10 07:16:05;;;;;;;;;;;21.60;63.70;;;;;;4997128;28;1884;-69
2022/09/10 07:18:32;;;;;;;;;;;21.60;63.80;;;;;;5005798;28;2046;-68
2022/09/10 07:21:11;;;;;;;;;;;21.60;64.80;;;;;;5026636;28;1839;-69
2022/09/10 07:23:37;;;;;;;;;;;21.60;63.80;;;;;;5004631;28;2323;-70
2022/09/10 07:26:04;;;;;;;;;;;21.60;64.00;;;;;;5032795;28;1140;-68
2022/09/10 07:28:30;;;;;;;;;;;21.60;63.60;;;;;;5017921;28;1096;-69
2022/09/10 07:30:56;;;;;;;;;;;21.60;63.60;;;;;;5014807;28;1902;-69
2022/09/10 07:33:22;;;;;;;;;;;21.60;63.60;;;;;;5014489;28;1184;-68
2022/09/10 07:35:47;;;;;;;;;;;21.60;63.50;;;;;;5015033;28;1211;-70
2022/09/10 07:38:13;;;;;;;;;;;21.60;63.70;;;;;;5014645;28;1186;-68
2022/09/10 07:40:39;;;;;;;;;;;21.60;63.70;;;;;;5015147;28;796;-69
2022/09/10 07:43:05;;;;;;;;;;;21.60;63.70;;;;;;5014635;28;1213;-69
2022/09/10 07:45:31;;;;;;;;;;;21.60;63.90;;;;;;5014878;28;899;-69
2022/09/10 07:47:56;;;;;;;;;;;21.60;63.70;;;;;;4997373;28;832;-69
2022/09/10 07:50:22;;;;;;;;;;;21.60;64.00;;;;;;5014633;28;1906;-69
2022/09/10 07:52:48;;;;;;;;;;;21.60;63.80;;;;;;5014401;28;1207;-69
2022/09/10 07:55:13;;;;;;;;;;;21.60;63.90;;;;;;5014888;28;899;-69
2022/09/10 07:57:39;;;;;;;;;;;21.60;64.10;;;;;;5014478;28;1030;-70
2022/09/10 08:00:07;;;;;;;;;;;21.60;64.00;;;;;;5014155;28;789;-69
2022/09/10 08:02:32;;;;;;;;;;;21.60;64.10;;;;;;4996969;28;1232;-69
2022/09/10 08:04:57;;;;;;;;;;;21.60;64.30;;;;;;5014491;28;942;-70
2022/09/10 08:07:23;;;;;;;;;;;21.60;64.30;;;;;;5014053;28;887;-69
2022/09/10 08:09:48;;;;;;;;;;;21.60;64.10;;;;;;5014269;28;942;-70
2022/09/10 08:12:15;;;;;;;;;;;21.60;64.20;;;;;;5014074;28;1902;-69
2022/09/10 08:14:41;;;;;;;;;;;21.60;64.20;;;;;;4996937;28;1112;-69
2022/09/10 08:17:06;;;;;;;;;;;21.60;64.30;;;;;;5014288;28;847;-69
2022/09/10 08:19:32;;;;;;;;;;;21.60;64.30;;;;;;5029231;28;844;-69
2022/09/10 08:21:58;;;;;;;;;;;21.60;64.30;;;;;;5029219;28;1276;-69
2022/09/10 08:24:23;;;;;;;;;;;21.60;64.30;;;;;;5014226;28;937;-69
2022/09/10 08:26:49;;;;;;;;;;;21.60;64.20;;;;;;5014204;28;1205;-69
2022/09/10 08:29:14;;;;;;;;;;;21.60;64.20;;;;;;4996113;28;892;-69
2022/09/10 08:31:40;;;;;;;;;;;21.60;64.30;;;;;;5013643;28;1894;-69
2022/09/10 08:34:07;;;;;;;;;;;21.60;64.00;;;;;;5013985;28;863;-69
2022/09/10 08:36:32;;;;;;;;;;;21.60;64.10;;;;;;5013908;28;871;-69
2022/09/10 08:38:58;;;;;;;;;;;21.60;64.10;;;;;;5013719;28;780;-69
2022/09/10 08:41:34;;;;;;;;;;;21.60;64.00;;;;;;5013675;28;1208;-69
2022/09/10 08:44:11;;;;;;;;;;;21.60;64.10;;;;;;5012644;28;816;-69
2022/09/10 08:46:57;;;;;;;;;;;21.60;64.00;;;;;;5012443;28;868;-69
2022/09/10 08:49:35;;;;;;;;;;;21.60;64.10;;;;;;5012251;28;824;-69
2022/09/10 08:52:00;;;;;;;;;;;21.60;64.10;;;;;;5013254;28;1902;-69
2022/09/10 08:54:49;;;;;;;;;;;21.60;64.30;;;;;;5013784;28;856;-69
2022/09/10 08:57:30;;;;;;;;;;;21.60;64.10;;;;;;5013522;28;1405;-69
2022/09/10 08:59:55;;;;;;;;;;;21.60;64.10;;;;;;5012149;28;796;-68
2022/09/10 09:02:32;;;;;;;;;;;21.60;63.90;;;;;;5012109;28;1219;-68
2022/09/10 09:05:04;;;;;;;;;;;21.60;64.10;;;;;;5012210;28;1018;-68
2022/09/10 09:07:36;;;;;;;;;;;21.60;64.00;;;;;;5012348;28;973;-69
2022/09/10 09:10:01;;;;;;;;;;;21.60;64.00;;;;;;5012088;28;874;-69
2022/09/10 09:12:47;;;;;;;;;;;21.60;64.10;;;;;;5012058;28;1903;-68
2022/09/10 09:15:15;;;;;;;;;;;21.60;63.80;;;;;;4992193;28;1335;-69
2022/09/10 09:17:45;;;;;;;;;;;21.60;63.70;;;;;;4995035;28;859;-69
2022/09/10 09:20:17;;;;;;;;;;;21.60;63.90;;;;;;4995706;28;816;-68
2022/09/10 09:23:02;;;;;;;;;;;21.60;63.80;;;;;;4994149;28;2279;-68
2022/09/10 09:25:32;;;;;;;;;;;21.60;63.90;;;;;;5002790;28;1709;-68
2022/09/10 09:27:57;;;;;;;;;;;21.60;63.80;;;;;;5018257;28;1635;-68
2022/09/10 09:30:26;;;;;;;;;;;21.60;63.90;;;;;;5024637;28;1902;-68
2022/09/10 09:32:52;;;;;;;;;;;21.60;63.80;;;;;;5008763;28;1514;-69
2022/09/10 09:35:27;;;;;;;;;;;21.60;63.90;;;;;;4992492;28;835;-69
2022/09/10 09:38:16;;;;;;;;;;;21.60;63.80;;;;;;4992406;28;836;-69
2022/09/10 09:40:43;;;;;;;;;;;21.70;63.90;;;;;;4985428;28;1182;-69
2022/09/10 09:43:12;;;;;;;;;;;21.60;63.90;;;;;;4992164;28;1311;-69
2022/09/10 09:45:38;;;;;;;;;;;21.70;63.70;;;;;;4993710;28;1031;-69
2022/09/10 09:48:14;;;;;;;;;;;21.70;63.40;;;;;;4976143;28;1145;-69
2022/09/10 09:50:41;;;;;;;;;;;21.70;63.60;;;;;;4992238;28;1894;-69
2022/09/10 09:53:06;;;;;;;;;;;21.70;63.70;;;;;;4993483;28;1256;-69
2022/09/10 09:55:32;;;;;;;;;;;21.70;63.80;;;;;;4992348;28;793;-69
2022/09/10 09:58:16;;;;;;;;;;;21.70;63.70;;;;;;4993447;28;855;-69
2022/09/10 10:00:43;;;;;;;;;;;21.70;63.40;;;;;;4993365;28;994;-69
2022/09/10 10:03:17;;;;;;;;;;;21.70;63.50;;;;;;4993237;28;1256;-69
2022/09/10 10:05:42;;;;;;;;;;;21.70;63.50;;;;;;4992192;28;1040;-69
2022/09/10 10:08:40;;;;;;;;;;;21.70;63.60;;;;;;4992171;28;821;-69
2022/09/10 10:11:06;;;;;;;;;;;21.80;62.90;;;;;;4960151;28;1898;-69
2022/09/10 10:13:39;;;;;;;;;;;21.80;62.40;;;;;;4992139;28;1178;-69
2022/09/10 10:16:15;;;;;;;;;;;21.80;62.40;;;;;;5005650;28;1199;-69
2022/09/10 10:18:40;;;;;;;;;;;21.80;62.50;;;;;;4995356;28;890;-69
2022/09/10 10:21:13;;;;;;;;;;;21.80;62.20;;;;;;5012865;28;1014;-69
2022/09/10 10:23:39;;;;;;;;;;;21.80;61.70;;;;;;5012567;28;1260;-69
2022/09/10 10:26:20;;;;;;;;;;;21.80;62.00;;;;;;4995386;28;847;-69
2022/09/10 10:28:46;;;;;;;;;;;21.80;61.80;;;;;;5013149;28;1489;-69
2022/09/10 10:31:11;;;;;;;;;;;21.80;61.70;;;;;;5031743;28;1898;-69
2022/09/10 10:33:38;;;;;;;;;;;21.80;61.60;;;;;;4998727;28;1267;-69
2022/09/10 10:36:09;;;;;;;;;;;21.90;61.80;;;;;;4999180;28;923;-69
2022/09/10 10:38:39;;;;;;;;;;;21.90;61.80;;;;;;4998417;28;1030;-69
2022/09/10 10:41:10;;;;;;;;;;;21.90;62.10;;;;;;4998885;28;859;-69
2022/09/10 10:43:41;;;;;;;;;;;21.90;61.90;;;;;;5016159;28;1225;-69
2022/09/10 10:46:11;;;;;;;;;;;21.90;61.60;;;;;;5016362;28;898;-69
2022/09/10 10:48:51;;;;;;;;;;;21.90;61.90;;;;;;5015771;28;1002;-69
2022/09/10 10:51:19;;;;;;;;;;;21.90;61.90;;;;;;4998700;28;2258;-69
2022/09/10 10:54:06;;;;;;;;;;;21.90;61.80;;;;;;5016166;28;872;-69
2022/09/10 10:56:34;;;;;;;;;;;21.90;62.00;;;;;;4998526;28;852;-69
2022/09/10 10:59:15;;;;;;;;;;;21.90;62.50;;;;;;5015664;28;903;-70
2022/09/10 11:01:47;;;;;;;;;;;21.90;62.70;;;;;;5015846;28;1189;-69
2022/09/10 11:04:18;;;;;;;;;;;21.90;62.90;;;;;;4998715;28;880;-69
2022/09/10 11:06:44;;;;;;;;;;;21.90;62.80;;;;;;4998401;28;1006;-70
2022/09/10 11:09:19;;;;;;;;;;;22.00;62.40;;;;;;4999454;28;892;-69
2022/09/10 11:11:50;;;;;;;;;;;21.90;62.30;;;;;;4997754;28;1891;-69
2022/09/10 11:14:18;;;;;;;;;;;21.90;62.10;;;;;;4996024;28;2750;-69
2022/09/10 11:16:53;;;;;;;;;;;22.00;62.20;;;;;;5016194;28;1082;-69
2022/09/10 11:19:24;;;;;;;;;;;22.00;62.20;;;;;;5015439;28;1453;-68
2022/09/10 11:22:00;;;;;;;;;;;22.00;62.20;;;;;;4997417;28;1240;-69
2022/09/10 11:24:28;;;;;;;;;;;22.00;62.50;;;;;;4981666;28;1333;-69
2022/09/10 11:27:13;;;;;;;;;;;22.00;62.50;;;;;;4994446;28;1151;-68
2022/09/10 11:29:40;;;;;;;;;;;22.00;62.50;;;;;;4994488;28;1046;-69
2022/09/10 11:32:05;;;;;;;;;;;22.00;62.70;;;;;;4997323;28;1898;-69
2022/09/10 11:34:46;;;;;;;;;;;22.00;62.80;;;;;;5014982;28;824;-69
2022/09/10 11:37:30;;;;;;;;;;;22.00;62.40;;;;;;4997958;28;906;-69
2022/09/10 11:39:56;;;;;;;;;;;22.00;62.20;;;;;;5014521;28;1049;-69
2022/09/10 11:42:23;;;;;;;;;;;22.00;62.60;;;;;;5014363;28;1213;-68
2022/09/10 11:44:52;;;;;;;;;;;22.00;62.80;;;;;;4997557;28;828;-69
2022/09/10 11:47:21;;;;;;;;;;;22.00;62.80;;;;;;5014753;28;923;-69
2022/09/10 11:49:54;;;;;;;;;;;22.00;62.80;;;;;;4997243;28;821;-69
2022/09/10 11:52:20;;;;;;;;;;;22.00;62.80;;;;;;4997047;28;1906;-69
2022/09/10 11:54:46;;;;;;;;;;;22.00;62.90;;;;;;4997426;28;939;-69
2022/09/10 11:57:20;;;;;;;;;;;21.90;62.10;;;;;;4997183;28;1354;-69
2022/09/10 11:59:46;;;;;;;;;;;21.90;62.80;;;;;;4997079;28;899;-69
2022/09/10 12:02:17;;;;;;;;;;;21.90;62.80;;;;;;4996013;28;2088;-69
2022/09/10 12:05:10;;;;;;;;;;;21.90;63.00;;;;;;5010167;28;1901;-69
2022/09/10 12:07:35;;;;;;;;;;;21.90;63.10;;;;;;5016901;28;1206;-69
2022/09/10 12:10:04;;;;;;;;;;;21.90;62.80;;;;;;5023137;28;1211;-69
2022/09/10 12:12:32;;;;;;;;;;;21.90;62.50;;;;;;5033844;28;1961;-69
2022/09/10 12:14:58;;;;;;;;;;;21.90;62.80;;;;;;4996733;28;1280;-69
2022/09/10 12:17:28;;;;;;;;;;;21.80;62.80;;;;;;4996887;28;828;-69
2022/09/10 12:19:55;;;;;;;;;;;21.80;62.80;;;;;;4996564;28;827;-69
2022/09/10 12:22:22;;;;;;;;;;;21.90;62.80;;;;;;4996878;28;1297;-69
2022/09/10 12:24:51;;;;;;;;;;;21.90;62.90;;;;;;4996674;28;1038;-69
2022/09/10 12:27:17;;;;;;;;;;;21.90;62.90;;;;;;4993365;28;1187;-69
2022/09/10 12:29:43;;;;;;;;;;;21.80;63.00;;;;;;4993315;28;968;-69
2022/09/10 12:32:14;;;;;;;;;;;21.90;63.10;;;;;;5004183;28;1903;-69
2022/09/10 12:34:40;;;;;;;;;;;21.90;63.00;;;;;;5014127;28;828;-69
2022/09/10 12:37:06;;;;;;;;;;;21.80;63.00;;;;;;5013871;28;839;-69
2022/09/10 12:39:33;;;;;;;;;;;21.90;63.30;;;;;;5013994;28;1070;-69
2022/09/10 12:41:59;;;;;;;;;;;21.80;62.70;;;;;;5013807;28;1221;-69
2022/09/10 12:44:34;;;;;;;;;;;21.90;63.00;;;;;;4996568;28;804;-69
2022/09/10 12:47:15;;;;;;;;;;;21.90;62.90;;;;;;5013825;28;851;-69
2022/09/10 12:49:52;;;;;;;;;;;21.90;63.00;;;;;;5013893;28;860;-69
2022/09/10 12:52:22;;;;;;;;;;;21.90;62.90;;;;;;4995701;28;1914;-69
2022/09/10 12:54:51;;;;;;;;;;;21.90;63.90;;;;;;4996565;28;828;-69
2022/09/10 12:57:36;;;;;;;;;;;21.90;63.30;;;;;;4996232;28;944;-69
2022/09/10 13:00:03;;;;;;;;;;;21.90;63.50;;;;;;5013646;28;880;-69
2022/09/10 13:02:33;;;;;;;;;;;21.90;63.70;;;;;;4993660;28;1890;-69
2022/09/10 13:04:59;;;;;;;;;;;21.90;63.90;;;;;;4995961;28;1990;-69
2022/09/10 13:07:27;;;;;;;;;;;21.80;63.90;;;;;;5008798;28;1208;-69
2022/09/10 13:10:01;;;;;;;;;;;21.80;64.00;;;;;;5000435;28;2428;-71
2022/09/10 13:12:26;;;;;;;;;;;21.80;64.10;;;;;;4989050;28;1894;-70
2022/09/10 13:14:52;;;;;;;;;;;21.80;64.10;;;;;;5001621;28;1568;-70
2022/09/10 13:17:37;;;;;;;;;;;21.80;64.20;;;;;;4987597;28;1122;-69
2022/09/10 13:20:18;;;;;;;;;;;21.80;64.30;;;;;;4994530;28;927;-70
2022/09/10 13:23:05;;;;;;;;;;;21.80;64.30;;;;;;5012062;28;1198;-70
2022/09/10 13:25:43;;;;;;;;;;;21.80;64.40;;;;;;5012474;28;940;-70
2022/09/10 13:28:27;;;;;;;;;;;21.80;64.50;;;;;;4994681;28;1203;-69
2022/09/10 13:31:00;;;;;;;;;;;21.80;64.40;;;;;;5012219;28;1890;-70
2022/09/10 13:33:28;;;;;;;;;;;21.80;65.20;;;;;;4974921;28;1225;-69
2022/09/10 13:35:53;;;;;;;;;;;21.80;64.50;;;;;;4992881;28;840;-71
2022/09/10 13:38:38;;;;;;;;;;;21.80;64.60;;;;;;4981408;28;2182;-70
2022/09/10 13:41:22;;;;;;;;;;;21.80;64.50;;;;;;5023132;28;1239;-70
2022/09/10 13:43:54;;;;;;;;;;;21.80;64.40;;;;;;5011698;28;1234;-70
2022/09/10 13:46:20;;;;;;;;;;;21.80;63.40;;;;;;5010941;28;1000;-71
2022/09/10 13:48:48;;;;;;;;;;;21.80;63.00;;;;;;5011643;28;1244;-71
2022/09/10 13:51:16;;;;;;;;;;;21.90;63.00;;;;;;4994338;28;1946;-68
2022/09/10 13:53:43;;;;;;;;;;;21.80;62.60;;;;;;4994048;28;1263;-70
2022/09/10 13:56:21;;;;;;;;;;;21.90;61.60;;;;;;4994176;28;958;-70
2022/09/10 13:58:48;;;;;;;;;;;21.90;61.20;;;;;;4993301;28;1026;-70
2022/09/10 14:01:13;;;;;;;;;;;21.90;61.50;;;;;;5011575;28;820;-70
2022/09/10 14:03:43;;;;;;;;;;;22.00;61.40;;;;;;5012085;28;1275;-70
2022/09/10 14:06:10;;;;;;;;;;;21.90;61.50;;;;;;5016110;28;934;-70
2022/09/10 14:08:38;;;;;;;;;;;22.00;61.50;;;;;;4997961;28;1057;-70
2022/09/10 14:11:13;;;;;;;;;;;22.00;61.50;;;;;;5015843;28;1899;-68
2022/09/10 14:13:44;;;;;;;;;;;22.00;61.70;;;;;;4998295;28;1290;-71
2022/09/10 14:16:11;;;;;;;;;;;22.00;61.30;;;;;;4998249;28;1153;-70
2022/09/10 14:18:47;;;;;;;;;;;22.00;61.70;;;;;;5015868;28;797;-67
2022/09/10 14:21:13;;;;;;;;;;;22.00;62.00;;;;;;4998983;28;898;-67
2022/09/10 14:23:41;;;;;;;;;;;22.00;62.50;;;;;;4998145;28;1191;-67
2022/09/10 14:26:12;;;;;;;;;;;22.00;62.80;;;;;;5016645;28;848;-68
2022/09/10 14:29:07;;;;;;;;;;;22.00;62.90;;;;;;5015990;28;1183;-69
2022/09/10 14:31:34;;;;;;;;;;;21.90;62.90;;;;;;5007953;28;2218;-68
2022/09/10 14:34:19;;;;;;;;;;;21.90;63.20;;;;;;5007272;28;1125;-68
2022/09/10 14:36:44;;;;;;;;;;;21.90;63.20;;;;;;5016678;28;2092;-68
2022/09/10 14:39:13;;;;;;;;;;;21.90;63.40;;;;;;5007889;28;1339;-68
2022/09/10 14:41:39;;;;;;;;;;;21.90;63.30;;;;;;5032066;28;1477;-68
2022/09/10 14:44:12;;;;;;;;;;;21.90;63.20;;;;;;5009629;28;1625;-68